sensor_id;sensor_type;location;lat;lon;timestamp;P1;durP1;ratioP1;P2;durP2;ratioP2
51901;SDS011;37929;53.218;6.548;2023-07-31T00:00:26;6.35;;;4.20;;
51901;SDS011;37929;53.218;6.548;2023-07-31T00:02:52;5.80;;;4.28;;
51901;SDS011;37929;53.218;6.548;2023-07-31T00:05:19;5.18;;;3.95;;
51901;SDS011;37929;53.218;6.548;2023-07-31T00:07:44;6.85;;;4.43;;
51901;SDS011;37929;53.218;6.548;2023-07-31T00:10:10;6.05;;;4.30;;
51901;SDS011;37929;53.218;6.548;2023-07-31T00:12:37;5.68;;;4.38;;
51901;SDS011;37929;53.218;6.548;2023-07-31T00:15:07;7.03;;;4.78;;
51901;SDS011;37929;53.218;6.548;2023-07-31T00:17:33;5.70;;;4.47;;
51901;SDS011;37929;53.218;6.548;2023-07-31T00:19:59;7.30;;;4.38;;
51901;SDS011;37929;53.218;6.548;2023-07-31T00:22:25;5.32;;;3.90;;
51901;SDS011;37929;53.218;6.548;2023-07-31T00:24:51;6.65;;;4.32;;
51901;SDS011;37929;53.218;6.548;2023-07-31T00:27:16;7.20;;;4.20;;
51901;SDS011;37929;53.218;6.548;2023-07-31T00:29:42;5.50;;;3.65;;
51901;SDS011;37929;53.218;6.548;2023-07-31T00:32:08;5.22;;;3.30;;
51901;SDS011;37929;53.218;6.548;2023-07-31T00:34:34;5.10;;;3.33;;
51901;SDS011;37929;53.218;6.548;2023-07-31T00:36:59;5.60;;;3.47;;
51901;SDS011;37929;53.218;6.548;2023-07-31T00:39:25;4.63;;;3.10;;
51901;SDS011;37929;53.218;6.548;2023-07-31T00:41:51;6.13;;;3.42;;
51901;SDS011;37929;53.218;6.548;2023-07-31T00:44:17;4.95;;;3.28;;
51901;SDS011;37929;53.218;6.548;2023-07-31T00:46:42;5.35;;;3.38;;
51901;SDS011;37929;53.218;6.548;2023-07-31T00:49:09;5.72;;;3.30;;
51901;SDS011;37929;53.218;6.548;2023-07-31T00:51:36;4.75;;;3.63;;
51901;SDS011;37929;53.218;6.548;2023-07-31T00:54:02;7.60;;;3.53;;
51901;SDS011;37929;53.218;6.548;2023-07-31T00:56:28;7.43;;;4.40;;
51901;SDS011;37929;53.218;6.548;2023-07-31T00:58:55;4.13;;;3.45;;
51901;SDS011;37929;53.218;6.548;2023-07-31T01:01:21;6.00;;;3.72;;
51901;SDS011;37929;53.218;6.548;2023-07-31T01:03:47;6.93;;;3.65;;
51901;SDS011;37929;53.218;6.548;2023-07-31T01:09:04;4.45;;;3.42;;
51901;SDS011;37929;53.218;6.548;2023-07-31T01:12:15;5.68;;;3.80;;
51901;SDS011;37929;53.218;6.548;2023-07-31T01:14:36;5.03;;;3.60;;
51901;SDS011;37929;53.218;6.548;2023-07-31T01:17:02;52.75;;;32.08;;
51901;SDS011;37929;53.218;6.548;2023-07-31T01:19:28;5.80;;;3.38;;
51901;SDS011;37929;53.218;6.548;2023-07-31T01:27:31;6.00;;;2.80;;
51901;SDS011;37929;53.218;6.548;2023-07-31T01:32:39;5.28;;;3.35;;
51901;SDS011;37929;53.218;6.548;2023-07-31T01:35:07;5.97;;;3.67;;
51901;SDS011;37929;53.218;6.548;2023-07-31T01:37:33;5.72;;;3.55;;
51901;SDS011;37929;53.218;6.548;2023-07-31T01:39:59;4.82;;;3.47;;
51901;SDS011;37929;53.218;6.548;2023-07-31T01:42:25;5.22;;;3.75;;
51901;SDS011;37929;53.218;6.548;2023-07-31T01:44:51;7.47;;;4.07;;
51901;SDS011;37929;53.218;6.548;2023-07-31T01:47:17;7.30;;;3.92;;
51901;SDS011;37929;53.218;6.548;2023-07-31T01:49:42;5.43;;;3.50;;
51901;SDS011;37929;53.218;6.548;2023-07-31T01:52:08;5.95;;;4.00;;
51901;SDS011;37929;53.218;6.548;2023-07-31T01:54:34;6.97;;;3.80;;
51901;SDS011;37929;53.218;6.548;2023-07-31T01:57:01;4.40;;;3.00;;
51901;SDS011;37929;53.218;6.548;2023-07-31T01:59:27;4.65;;;3.25;;
51901;SDS011;37929;53.218;6.548;2023-07-31T02:01:54;4.25;;;3.00;;
51901;SDS011;37929;53.218;6.548;2023-07-31T02:04:19;4.28;;;3.22;;
51901;SDS011;37929;53.218;6.548;2023-07-31T02:06:45;3.70;;;2.85;;
51901;SDS011;37929;53.218;6.548;2023-07-31T02:09:11;4.07;;;2.75;;
51901;SDS011;37929;53.218;6.548;2023-07-31T02:11:37;4.65;;;3.05;;
51901;SDS011;37929;53.218;6.548;2023-07-31T02:14:02;4.68;;;2.83;;
51901;SDS011;37929;53.218;6.548;2023-07-31T02:16:28;5.55;;;2.70;;
51901;SDS011;37929;53.218;6.548;2023-07-31T02:18:54;4.05;;;2.42;;
51901;SDS011;37929;53.218;6.548;2023-07-31T02:21:21;2.83;;;2.28;;
51901;SDS011;37929;53.218;6.548;2023-07-31T02:23:46;3.63;;;2.58;;
51901;SDS011;37929;53.218;6.548;2023-07-31T02:26:12;4.28;;;2.40;;
51901;SDS011;37929;53.218;6.548;2023-07-31T02:28:38;3.75;;;2.53;;
51901;SDS011;37929;53.218;6.548;2023-07-31T02:31:05;3.67;;;2.30;;
51901;SDS011;37929;53.218;6.548;2023-07-31T02:33:30;3.85;;;2.33;;
51901;SDS011;37929;53.218;6.548;2023-07-31T02:35:56;16.75;;;11.25;;
51901;SDS011;37929;53.218;6.548;2023-07-31T02:38:22;3.67;;;2.50;;
51901;SDS011;37929;53.218;6.548;2023-07-31T02:40:48;3.78;;;2.38;;
51901;SDS011;37929;53.218;6.548;2023-07-31T02:43:13;3.80;;;2.45;;
51901;SDS011;37929;53.218;6.548;2023-07-31T02:45:39;4.38;;;2.38;;
51901;SDS011;37929;53.218;6.548;2023-07-31T02:48:05;4.45;;;2.20;;
51901;SDS011;37929;53.218;6.548;2023-07-31T02:50:31;3.20;;;2.25;;
51901;SDS011;37929;53.218;6.548;2023-07-31T02:52:57;5.32;;;2.25;;
51901;SDS011;37929;53.218;6.548;2023-07-31T02:55:23;3.80;;;2.25;;
51901;SDS011;37929;53.218;6.548;2023-07-31T02:57:48;3.83;;;2.10;;
51901;SDS011;37929;53.218;6.548;2023-07-31T03:00:14;4.65;;;2.10;;
51901;SDS011;37929;53.218;6.548;2023-07-31T03:02:40;3.95;;;2.00;;
51901;SDS011;37929;53.218;6.548;2023-07-31T03:05:06;3.70;;;2.00;;
51901;SDS011;37929;53.218;6.548;2023-07-31T03:07:32;2.65;;;1.92;;
51901;SDS011;37929;53.218;6.548;2023-07-31T03:09:58;3.65;;;1.70;;
51901;SDS011;37929;53.218;6.548;2023-07-31T03:12:23;2.78;;;1.75;;
51901;SDS011;37929;53.218;6.548;2023-07-31T03:14:51;2.90;;;1.77;;
51901;SDS011;37929;53.218;6.548;2023-07-31T03:17:17;3.40;;;1.90;;
51901;SDS011;37929;53.218;6.548;2023-07-31T03:19:43;3.25;;;1.80;;
51901;SDS011;37929;53.218;6.548;2023-07-31T03:22:08;3.60;;;1.85;;
51901;SDS011;37929;53.218;6.548;2023-07-31T03:24:34;5.95;;;2.03;;
51901;SDS011;37929;53.218;6.548;2023-07-31T03:27:03;2.80;;;1.80;;
51901;SDS011;37929;53.218;6.548;2023-07-31T03:29:38;6.22;;;1.63;;
51901;SDS011;37929;53.218;6.548;2023-07-31T03:32:04;2.72;;;1.52;;
51901;SDS011;37929;53.218;6.548;2023-07-31T03:34:30;2.42;;;1.88;;
51901;SDS011;37929;53.218;6.548;2023-07-31T03:36:57;2.45;;;1.50;;
51901;SDS011;37929;53.218;6.548;2023-07-31T03:39:26;2.85;;;1.55;;
51901;SDS011;37929;53.218;6.548;2023-07-31T03:41:52;3.38;;;1.67;;
51901;SDS011;37929;53.218;6.548;2023-07-31T03:44:17;2.78;;;1.50;;
51901;SDS011;37929;53.218;6.548;2023-07-31T03:46:43;3.13;;;1.40;;
51901;SDS011;37929;53.218;6.548;2023-07-31T03:49:09;3.08;;;1.45;;
51901;SDS011;37929;53.218;6.548;2023-07-31T03:51:35;2.72;;;1.35;;
51901;SDS011;37929;53.218;6.548;2023-07-31T03:54:00;2.35;;;1.58;;
51901;SDS011;37929;53.218;6.548;2023-07-31T03:56:26;3.38;;;1.58;;
51901;SDS011;37929;53.218;6.548;2023-07-31T03:58:52;5.35;;;1.50;;
51901;SDS011;37929;53.218;6.548;2023-07-31T04:01:17;2.92;;;1.50;;
51901;SDS011;37929;53.218;6.548;2023-07-31T04:03:44;3.03;;;1.45;;
51901;SDS011;37929;53.218;6.548;2023-07-31T04:06:10;3.08;;;1.77;;
51901;SDS011;37929;53.218;6.548;2023-07-31T04:08:36;3.08;;;1.52;;
51901;SDS011;37929;53.218;6.548;2023-07-31T04:11:01;2.97;;;1.83;;
51901;SDS011;37929;53.218;6.548;2023-07-31T04:13:29;2.72;;;1.55;;
51901;SDS011;37929;53.218;6.548;2023-07-31T04:15:55;2.83;;;1.40;;
51901;SDS011;37929;53.218;6.548;2023-07-31T04:18:21;3.58;;;1.55;;
51901;SDS011;37929;53.218;6.548;2023-07-31T04:20:47;3.33;;;1.50;;
51901;SDS011;37929;53.218;6.548;2023-07-31T04:23:12;4.45;;;1.40;;
51901;SDS011;37929;53.218;6.548;2023-07-31T04:25:38;4.70;;;1.80;;
51901;SDS011;37929;53.218;6.548;2023-07-31T04:28:04;2.72;;;1.52;;
51901;SDS011;37929;53.218;6.548;2023-07-31T04:30:30;2.95;;;1.77;;
51901;SDS011;37929;53.218;6.548;2023-07-31T04:32:56;2.88;;;1.50;;
51901;SDS011;37929;53.218;6.548;2023-07-31T04:35:21;1.95;;;1.45;;
51901;SDS011;37929;53.218;6.548;2023-07-31T04:37:47;3.45;;;1.40;;
51901;SDS011;37929;53.218;6.548;2023-07-31T04:40:14;2.85;;;1.48;;
51901;SDS011;37929;53.218;6.548;2023-07-31T04:42:40;2.22;;;1.23;;
51901;SDS011;37929;53.218;6.548;2023-07-31T04:45:08;3.08;;;1.20;;
51901;SDS011;37929;53.218;6.548;2023-07-31T04:47:34;1.75;;;1.35;;
51901;SDS011;37929;53.218;6.548;2023-07-31T04:50:00;2.50;;;1.30;;
51901;SDS011;37929;53.218;6.548;2023-07-31T04:52:26;3.50;;;1.30;;
51901;SDS011;37929;53.218;6.548;2023-07-31T04:54:51;1.80;;;1.30;;
51901;SDS011;37929;53.218;6.548;2023-07-31T04:57:17;2.53;;;1.30;;
51901;SDS011;37929;53.218;6.548;2023-07-31T04:59:43;1.92;;;1.25;;
51901;SDS011;37929;53.218;6.548;2023-07-31T05:02:11;2.13;;;1.40;;
51901;SDS011;37929;53.218;6.548;2023-07-31T05:04:38;2.47;;;1.33;;
51901;SDS011;37929;53.218;6.548;2023-07-31T05:07:04;2.78;;;1.20;;
51901;SDS011;37929;53.218;6.548;2023-07-31T05:09:30;1.83;;;1.30;;
51901;SDS011;37929;53.218;6.548;2023-07-31T05:11:55;2.20;;;1.27;;
51901;SDS011;37929;53.218;6.548;2023-07-31T05:14:21;1.50;;;1.00;;
51901;SDS011;37929;53.218;6.548;2023-07-31T05:16:47;2.58;;;1.25;;
51901;SDS011;37929;53.218;6.548;2023-07-31T05:19:13;2.40;;;1.15;;
51901;SDS011;37929;53.218;6.548;2023-07-31T05:21:39;1.77;;;1.13;;
51901;SDS011;37929;53.218;6.548;2023-07-31T05:24:06;2.15;;;1.00;;
51901;SDS011;37929;53.218;6.548;2023-07-31T05:26:32;1.30;;;0.90;;
51901;SDS011;37929;53.218;6.548;2023-07-31T05:28:58;1.60;;;0.80;;
51901;SDS011;37929;53.218;6.548;2023-07-31T05:31:23;1.52;;;0.73;;
51901;SDS011;37929;53.218;6.548;2023-07-31T05:33:49;1.00;;;0.80;;
51901;SDS011;37929;53.218;6.548;2023-07-31T05:36:16;2.35;;;0.90;;
51901;SDS011;37929;53.218;6.548;2023-07-31T05:38:42;2.00;;;0.98;;
51901;SDS011;37929;53.218;6.548;2023-07-31T05:41:10;1.75;;;1.00;;
51901;SDS011;37929;53.218;6.548;2023-07-31T05:43:41;4.47;;;1.30;;
51901;SDS011;37929;53.218;6.548;2023-07-31T05:46:08;1.48;;;1.02;;
51901;SDS011;37929;53.218;6.548;2023-07-31T05:48:34;1.83;;;1.10;;
51901;SDS011;37929;53.218;6.548;2023-07-31T05:51:00;1.88;;;1.10;;
51901;SDS011;37929;53.218;6.548;2023-07-31T05:53:26;2.90;;;1.20;;
51901;SDS011;37929;53.218;6.548;2023-07-31T05:55:52;2.00;;;1.10;;
51901;SDS011;37929;53.218;6.548;2023-07-31T05:58:17;5.28;;;1.67;;
51901;SDS011;37929;53.218;6.548;2023-07-31T06:00:43;2.50;;;1.17;;
51901;SDS011;37929;53.218;6.548;2023-07-31T06:03:09;2.13;;;1.20;;
51901;SDS011;37929;53.218;6.548;2023-07-31T06:05:34;4.18;;;1.45;;
51901;SDS011;37929;53.218;6.548;2023-07-31T06:08:00;2.65;;;1.25;;
51901;SDS011;37929;53.218;6.548;2023-07-31T06:10:26;3.47;;;1.52;;
51901;SDS011;37929;53.218;6.548;2023-07-31T06:12:53;1.98;;;1.30;;
51901;SDS011;37929;53.218;6.548;2023-07-31T06:15:19;3.42;;;1.73;;
51901;SDS011;37929;53.218;6.548;2023-07-31T06:17:45;6.43;;;2.38;;
51901;SDS011;37929;53.218;6.548;2023-07-31T06:20:11;5.15;;;1.90;;
51901;SDS011;37929;53.218;6.548;2023-07-31T06:22:37;4.85;;;2.20;;
51901;SDS011;37929;53.218;6.548;2023-07-31T06:25:03;3.58;;;1.80;;
51901;SDS011;37929;53.218;6.548;2023-07-31T06:27:29;7.18;;;2.30;;
51901;SDS011;37929;53.218;6.548;2023-07-31T06:29:58;6.32;;;2.78;;
51901;SDS011;37929;53.218;6.548;2023-07-31T06:32:23;5.82;;;2.60;;
51901;SDS011;37929;53.218;6.548;2023-07-31T06:34:49;9.35;;;2.80;;
51901;SDS011;37929;53.218;6.548;2023-07-31T06:37:15;14.90;;;3.50;;
51901;SDS011;37929;53.218;6.548;2023-07-31T06:39:41;14.23;;;4.68;;
51901;SDS011;37929;53.218;6.548;2023-07-31T06:42:07;11.13;;;3.88;;
51901;SDS011;37929;53.218;6.548;2023-07-31T06:44:33;9.27;;;4.15;;
51901;SDS011;37929;53.218;6.548;2023-07-31T06:46:59;11.13;;;4.35;;
51901;SDS011;37929;53.218;6.548;2023-07-31T06:49:25;15.40;;;4.47;;
51901;SDS011;37929;53.218;6.548;2023-07-31T06:51:50;16.05;;;5.78;;
51901;SDS011;37929;53.218;6.548;2023-07-31T06:54:16;17.10;;;4.82;;
51901;SDS011;37929;53.218;6.548;2023-07-31T06:56:42;15.98;;;5.07;;
51901;SDS011;37929;53.218;6.548;2023-07-31T06:59:08;24.63;;;6.03;;
51901;SDS011;37929;53.218;6.548;2023-07-31T07:01:33;14.65;;;4.97;;
51901;SDS011;37929;53.218;6.548;2023-07-31T07:03:59;21.63;;;5.47;;
51901;SDS011;37929;53.218;6.548;2023-07-31T07:06:25;19.27;;;5.47;;
51901;SDS011;37929;53.218;6.548;2023-07-31T07:08:50;19.00;;;5.88;;
51901;SDS011;37929;53.218;6.548;2023-07-31T07:11:16;16.20;;;5.00;;
51901;SDS011;37929;53.218;6.548;2023-07-31T07:13:42;15.05;;;5.00;;
51901;SDS011;37929;53.218;6.548;2023-07-31T07:16:08;17.17;;;5.38;;
51901;SDS011;37929;53.218;6.548;2023-07-31T07:18:35;17.30;;;4.93;;
51901;SDS011;37929;53.218;6.548;2023-07-31T07:21:01;16.23;;;4.90;;
51901;SDS011;37929;53.218;6.548;2023-07-31T07:23:27;16.33;;;5.10;;
51901;SDS011;37929;53.218;6.548;2023-07-31T07:25:53;11.88;;;4.57;;
51901;SDS011;37929;53.218;6.548;2023-07-31T07:28:19;16.67;;;5.07;;
51901;SDS011;37929;53.218;6.548;2023-07-31T07:30:45;17.35;;;5.10;;
51901;SDS011;37929;53.218;6.548;2023-07-31T07:33:15;18.20;;;5.00;;
51901;SDS011;37929;53.218;6.548;2023-07-31T07:35:41;18.67;;;5.13;;
51901;SDS011;37929;53.218;6.548;2023-07-31T07:38:07;20.42;;;5.32;;
51901;SDS011;37929;53.218;6.548;2023-07-31T07:40:32;20.00;;;5.70;;
51901;SDS011;37929;53.218;6.548;2023-07-31T07:43:03;19.45;;;6.80;;
51901;SDS011;37929;53.218;6.548;2023-07-31T07:45:28;14.82;;;5.57;;
51901;SDS011;37929;53.218;6.548;2023-07-31T07:47:54;12.05;;;5.22;;
51901;SDS011;37929;53.218;6.548;2023-07-31T07:50:20;15.95;;;5.85;;
51901;SDS011;37929;53.218;6.548;2023-07-31T07:52:46;13.80;;;5.13;;
51901;SDS011;37929;53.218;6.548;2023-07-31T07:55:12;10.43;;;3.78;;
51901;SDS011;37929;53.218;6.548;2023-07-31T07:57:38;8.30;;;2.80;;
51901;SDS011;37929;53.218;6.548;2023-07-31T08:00:04;5.75;;;2.75;;
51901;SDS011;37929;53.218;6.548;2023-07-31T08:02:31;4.13;;;2.08;;
51901;SDS011;37929;53.218;6.548;2023-07-31T08:04:57;5.25;;;2.00;;
51901;SDS011;37929;53.218;6.548;2023-07-31T08:07:22;4.00;;;1.70;;
51901;SDS011;37929;53.218;6.548;2023-07-31T08:09:48;3.38;;;1.50;;
51901;SDS011;37929;53.218;6.548;2023-07-31T08:12:14;2.72;;;1.50;;
51901;SDS011;37929;53.218;6.548;2023-07-31T08:14:40;2.50;;;1.35;;
51901;SDS011;37929;53.218;6.548;2023-07-31T08:17:06;3.03;;;1.52;;
51901;SDS011;37929;53.218;6.548;2023-07-31T08:19:31;2.25;;;1.30;;
51901;SDS011;37929;53.218;6.548;2023-07-31T08:22:00;5.80;;;1.80;;
51901;SDS011;37929;53.218;6.548;2023-07-31T08:24:26;3.60;;;1.40;;
51901;SDS011;37929;53.218;6.548;2023-07-31T08:26:52;4.40;;;1.77;;
51901;SDS011;37929;53.218;6.548;2023-07-31T08:29:18;2.65;;;1.80;;
51901;SDS011;37929;53.218;6.548;2023-07-31T08:31:43;2.85;;;1.58;;
51901;SDS011;37929;53.218;6.548;2023-07-31T08:34:09;2.83;;;1.63;;
51901;SDS011;37929;53.218;6.548;2023-07-31T08:36:35;3.97;;;1.60;;
51901;SDS011;37929;53.218;6.548;2023-07-31T08:39:03;3.58;;;1.90;;
51901;SDS011;37929;53.218;6.548;2023-07-31T08:41:36;2.30;;;1.58;;
51901;SDS011;37929;53.218;6.548;2023-07-31T08:44:06;2.55;;;1.40;;
51901;SDS011;37929;53.218;6.548;2023-07-31T08:46:33;2.25;;;1.40;;
51901;SDS011;37929;53.218;6.548;2023-07-31T08:48:59;3.53;;;1.40;;
51901;SDS011;37929;53.218;6.548;2023-07-31T08:51:29;3.50;;;1.58;;
51901;SDS011;37929;53.218;6.548;2023-07-31T08:53:55;2.67;;;1.35;;
51901;SDS011;37929;53.218;6.548;2023-07-31T08:56:22;2.15;;;1.23;;
51901;SDS011;37929;53.218;6.548;2023-07-31T08:58:50;3.75;;;1.60;;
51901;SDS011;37929;53.218;6.548;2023-07-31T09:01:18;2.17;;;1.35;;
51901;SDS011;37929;53.218;6.548;2023-07-31T09:03:44;2.05;;;1.27;;
51901;SDS011;37929;53.218;6.548;2023-07-31T09:06:11;2.25;;;1.20;;
51901;SDS011;37929;53.218;6.548;2023-07-31T09:08:38;2.10;;;1.40;;
51901;SDS011;37929;53.218;6.548;2023-07-31T09:11:07;2.30;;;1.33;;
51901;SDS011;37929;53.218;6.548;2023-07-31T09:13:32;2.03;;;1.15;;
51901;SDS011;37929;53.218;6.548;2023-07-31T09:16:02;1.88;;;1.15;;
51901;SDS011;37929;53.218;6.548;2023-07-31T09:18:28;1.73;;;0.95;;
51901;SDS011;37929;53.218;6.548;2023-07-31T09:21:00;2.35;;;1.23;;
51901;SDS011;37929;53.218;6.548;2023-07-31T09:23:27;10.93;;;2.40;;
51901;SDS011;37929;53.218;6.548;2023-07-31T09:26:08;4.80;;;1.45;;
51901;SDS011;37929;53.218;6.548;2023-07-31T09:28:34;3.05;;;1.45;;
51901;SDS011;37929;53.218;6.548;2023-07-31T09:31:00;2.42;;;1.75;;
51901;SDS011;37929;53.218;6.548;2023-07-31T09:33:26;2.33;;;1.15;;
51901;SDS011;37929;53.218;6.548;2023-07-31T09:35:51;2.30;;;1.30;;
51901;SDS011;37929;53.218;6.548;2023-07-31T09:38:17;3.58;;;1.33;;
51901;SDS011;37929;53.218;6.548;2023-07-31T09:40:47;2.63;;;1.50;;
51901;SDS011;37929;53.218;6.548;2023-07-31T09:43:14;2.95;;;1.20;;
51901;SDS011;37929;53.218;6.548;2023-07-31T09:45:45;2.78;;;1.40;;
51901;SDS011;37929;53.218;6.548;2023-07-31T09:48:17;2.30;;;1.42;;
51901;SDS011;37929;53.218;6.548;2023-07-31T09:50:44;2.25;;;1.40;;
51901;SDS011;37929;53.218;6.548;2023-07-31T09:53:12;2.15;;;1.13;;
51901;SDS011;37929;53.218;6.548;2023-07-31T09:55:39;1.48;;;0.90;;
51901;SDS011;37929;53.218;6.548;2023-07-31T09:58:06;1.48;;;0.90;;
51901;SDS011;37929;53.218;6.548;2023-07-31T10:00:34;1.52;;;1.00;;
51901;SDS011;37929;53.218;6.548;2023-07-31T10:03:10;1.48;;;0.90;;
51901;SDS011;37929;53.218;6.548;2023-07-31T10:05:38;1.85;;;0.70;;
51901;SDS011;37929;53.218;6.548;2023-07-31T10:08:19;1.13;;;0.60;;
51901;SDS011;37929;53.218;6.548;2023-07-31T10:10:48;1.30;;;0.70;;
51901;SDS011;37929;53.218;6.548;2023-07-31T10:13:14;0.73;;;0.52;;
51901;SDS011;37929;53.218;6.548;2023-07-31T10:15:41;0.82;;;0.50;;
51901;SDS011;37929;53.218;6.548;2023-07-31T10:18:11;1.98;;;0.50;;
51901;SDS011;37929;53.218;6.548;2023-07-31T10:20:37;0.55;;;0.30;;
51901;SDS011;37929;53.218;6.548;2023-07-31T10:23:03;0.52;;;0.40;;
51901;SDS011;37929;53.218;6.548;2023-07-31T10:25:29;0.50;;;0.40;;
51901;SDS011;37929;53.218;6.548;2023-07-31T10:27:57;0.90;;;0.50;;
51901;SDS011;37929;53.218;6.548;2023-07-31T10:30:27;0.73;;;0.57;;
51901;SDS011;37929;53.218;6.548;2023-07-31T10:32:54;0.98;;;0.60;;
51901;SDS011;37929;53.218;6.548;2023-07-31T10:35:21;0.70;;;0.50;;
51901;SDS011;37929;53.218;6.548;2023-07-31T10:37:47;0.32;;;0.32;;
51901;SDS011;37929;53.218;6.548;2023-07-31T10:40:26;1.00;;;0.50;;
51901;SDS011;37929;53.218;6.548;2023-07-31T10:42:53;1.00;;;0.50;;
51901;SDS011;37929;53.218;6.548;2023-07-31T10:47:59;1.60;;;0.60;;
51901;SDS011;37929;53.218;6.548;2023-07-31T10:50:30;3.60;;;0.98;;
51901;SDS011;37929;53.218;6.548;2023-07-31T10:53:00;1.67;;;0.80;;
51901;SDS011;37929;53.218;6.548;2023-07-31T10:55:42;2.35;;;0.70;;
51901;SDS011;37929;53.218;6.548;2023-07-31T10:58:12;2.42;;;0.70;;
51901;SDS011;37929;53.218;6.548;2023-07-31T11:00:40;1.52;;;0.75;;
51901;SDS011;37929;53.218;6.548;2023-07-31T11:03:10;1.70;;;0.88;;
51901;SDS011;37929;53.218;6.548;2023-07-31T11:08:19;1.60;;;1.00;;
51901;SDS011;37929;53.218;6.548;2023-07-31T11:13:28;1.27;;;1.00;;
51901;SDS011;37929;53.218;6.548;2023-07-31T11:16:17;1.95;;;1.30;;
51901;SDS011;37929;53.218;6.548;2023-07-31T11:18:48;2.22;;;1.33;;
51901;SDS011;37929;53.218;6.548;2023-07-31T11:21:18;1.70;;;1.08;;
51901;SDS011;37929;53.218;6.548;2023-07-31T11:23:46;2.33;;;1.40;;
51901;SDS011;37929;53.218;6.548;2023-07-31T11:26:17;3.55;;;1.50;;
51901;SDS011;37929;53.218;6.548;2023-07-31T11:28:46;1.80;;;1.30;;
51901;SDS011;37929;53.218;6.548;2023-07-31T11:31:12;1.85;;;1.20;;
51901;SDS011;37929;53.218;6.548;2023-07-31T11:33:38;2.85;;;1.30;;
51901;SDS011;37929;53.218;6.548;2023-07-31T11:36:05;2.08;;;1.17;;
51901;SDS011;37929;53.218;6.548;2023-07-31T11:38:39;1.70;;;1.10;;
51901;SDS011;37929;53.218;6.548;2023-07-31T11:41:05;1.80;;;1.23;;
51901;SDS011;37929;53.218;6.548;2023-07-31T11:43:31;2.10;;;1.45;;
51901;SDS011;37929;53.218;6.548;2023-07-31T11:46:00;2.78;;;1.30;;
51901;SDS011;37929;53.218;6.548;2023-07-31T11:48:34;3.47;;;1.50;;
51901;SDS011;37929;53.218;6.548;2023-07-31T11:51:03;2.35;;;1.20;;
51901;SDS011;37929;53.218;6.548;2023-07-31T11:53:44;2.88;;;1.30;;
51901;SDS011;37929;53.218;6.548;2023-07-31T11:56:18;2.92;;;1.60;;
51901;SDS011;37929;53.218;6.548;2023-07-31T11:58:46;2.97;;;1.30;;
51901;SDS011;37929;53.218;6.548;2023-07-31T12:01:15;3.83;;;1.30;;
51901;SDS011;37929;53.218;6.548;2023-07-31T12:03:43;2.50;;;1.55;;
51901;SDS011;37929;53.218;6.548;2023-07-31T12:06:09;3.97;;;1.60;;
51901;SDS011;37929;53.218;6.548;2023-07-31T12:08:36;3.38;;;1.63;;
51901;SDS011;37929;53.218;6.548;2023-07-31T12:11:05;2.88;;;1.70;;
51901;SDS011;37929;53.218;6.548;2023-07-31T12:13:35;3.45;;;1.63;;
51901;SDS011;37929;53.218;6.548;2023-07-31T12:16:02;3.63;;;1.60;;
51901;SDS011;37929;53.218;6.548;2023-07-31T12:18:30;3.60;;;2.03;;
51901;SDS011;37929;53.218;6.548;2023-07-31T12:21:01;3.88;;;1.92;;
51901;SDS011;37929;53.218;6.548;2023-07-31T12:23:30;2.70;;;1.60;;
51901;SDS011;37929;53.218;6.548;2023-07-31T12:26:09;3.00;;;1.70;;
51901;SDS011;37929;53.218;6.548;2023-07-31T12:28:37;3.92;;;1.60;;
51901;SDS011;37929;53.218;6.548;2023-07-31T12:31:17;3.15;;;1.80;;
51901;SDS011;37929;53.218;6.548;2023-07-31T12:33:44;5.80;;;1.80;;
51901;SDS011;37929;53.218;6.548;2023-07-31T12:36:12;3.88;;;1.83;;
51901;SDS011;37929;53.218;6.548;2023-07-31T12:38:40;3.83;;;1.92;;
51901;SDS011;37929;53.218;6.548;2023-07-31T12:41:06;3.70;;;1.90;;
51901;SDS011;37929;53.218;6.548;2023-07-31T12:43:33;2.65;;;2.03;;
51901;SDS011;37929;53.218;6.548;2023-07-31T12:46:00;4.40;;;2.45;;
51901;SDS011;37929;53.218;6.548;2023-07-31T12:48:25;6.43;;;1.90;;
51901;SDS011;37929;53.218;6.548;2023-07-31T12:50:51;3.72;;;2.20;;
51901;SDS011;37929;53.218;6.548;2023-07-31T12:53:17;3.08;;;2.00;;
51901;SDS011;37929;53.218;6.548;2023-07-31T12:55:43;4.50;;;1.80;;
51901;SDS011;37929;53.218;6.548;2023-07-31T12:58:09;5.53;;;2.00;;
51901;SDS011;37929;53.218;6.548;2023-07-31T13:00:35;4.47;;;2.65;;
51901;SDS011;37929;53.218;6.548;2023-07-31T13:03:01;3.78;;;2.10;;
51901;SDS011;37929;53.218;6.548;2023-07-31T13:05:27;5.20;;;2.40;;
51901;SDS011;37929;53.218;6.548;2023-07-31T13:07:53;6.32;;;2.60;;
51901;SDS011;37929;53.218;6.548;2023-07-31T13:10:22;3.63;;;2.38;;
51901;SDS011;37929;53.218;6.548;2023-07-31T13:12:49;6.78;;;2.88;;
51901;SDS011;37929;53.218;6.548;2023-07-31T13:15:17;5.95;;;2.70;;
51901;SDS011;37929;53.218;6.548;2023-07-31T13:17:43;6.50;;;3.17;;
51901;SDS011;37929;53.218;6.548;2023-07-31T13:20:09;9.15;;;3.50;;
51901;SDS011;37929;53.218;6.548;2023-07-31T13:22:35;5.07;;;2.70;;
51901;SDS011;37929;53.218;6.548;2023-07-31T13:25:01;5.45;;;2.40;;
51901;SDS011;37929;53.218;6.548;2023-07-31T13:27:29;7.63;;;2.53;;
51901;SDS011;37929;53.218;6.548;2023-07-31T13:29:58;8.85;;;2.83;;
51901;SDS011;37929;53.218;6.548;2023-07-31T13:32:24;7.00;;;2.40;;
51901;SDS011;37929;53.218;6.548;2023-07-31T13:34:51;8.57;;;2.90;;
51901;SDS011;37929;53.218;6.548;2023-07-31T13:37:16;7.18;;;2.42;;
51901;SDS011;37929;53.218;6.548;2023-07-31T13:39:42;6.20;;;2.30;;
51901;SDS011;37929;53.218;6.548;2023-07-31T13:42:08;6.47;;;2.38;;
51901;SDS011;37929;53.218;6.548;2023-07-31T13:44:40;6.05;;;2.88;;
51901;SDS011;37929;53.218;6.548;2023-07-31T13:47:07;7.97;;;2.97;;
51901;SDS011;37929;53.218;6.548;2023-07-31T13:49:34;5.57;;;2.50;;
51901;SDS011;37929;53.218;6.548;2023-07-31T13:52:00;5.25;;;2.72;;
51901;SDS011;37929;53.218;6.548;2023-07-31T13:54:26;6.80;;;2.50;;
51901;SDS011;37929;53.218;6.548;2023-07-31T13:56:52;6.47;;;2.95;;
51901;SDS011;37929;53.218;6.548;2023-07-31T13:59:18;7.22;;;2.70;;
51901;SDS011;37929;53.218;6.548;2023-07-31T14:01:44;5.20;;;2.70;;
51901;SDS011;37929;53.218;6.548;2023-07-31T14:04:10;6.65;;;2.70;;
51901;SDS011;37929;53.218;6.548;2023-07-31T14:06:36;6.35;;;2.50;;
51901;SDS011;37929;53.218;6.548;2023-07-31T14:09:02;7.28;;;2.50;;
51901;SDS011;37929;53.218;6.548;2023-07-31T14:11:28;7.43;;;2.70;;
51901;SDS011;37929;53.218;6.548;2023-07-31T14:13:56;6.05;;;2.92;;
51901;SDS011;37929;53.218;6.548;2023-07-31T14:16:22;8.02;;;3.40;;
51901;SDS011;37929;53.218;6.548;2023-07-31T14:18:48;4.55;;;3.17;;
51901;SDS011;37929;53.218;6.548;2023-07-31T14:21:14;6.20;;;2.85;;
51901;SDS011;37929;53.218;6.548;2023-07-31T14:23:40;10.77;;;3.05;;
51901;SDS011;37929;53.218;6.548;2023-07-31T14:26:06;7.15;;;2.60;;
51901;SDS011;37929;53.218;6.548;2023-07-31T14:28:32;6.20;;;2.75;;
51901;SDS011;37929;53.218;6.548;2023-07-31T14:30:58;5.72;;;2.95;;
51901;SDS011;37929;53.218;6.548;2023-07-31T14:33:24;4.75;;;2.50;;
51901;SDS011;37929;53.218;6.548;2023-07-31T14:35:49;7.18;;;3.40;;
51901;SDS011;37929;53.218;6.548;2023-07-31T14:38:15;8.02;;;2.92;;
51901;SDS011;37929;53.218;6.548;2023-07-31T14:40:41;6.50;;;3.05;;
51901;SDS011;37929;53.218;6.548;2023-07-31T14:43:07;8.02;;;3.08;;
51901;SDS011;37929;53.218;6.548;2023-07-31T14:45:33;4.32;;;2.65;;
51901;SDS011;37929;53.218;6.548;2023-07-31T14:47:59;5.40;;;3.03;;
51901;SDS011;37929;53.218;6.548;2023-07-31T14:50:25;5.80;;;2.38;;
51901;SDS011;37929;53.218;6.548;2023-07-31T14:52:51;6.35;;;2.85;;
51901;SDS011;37929;53.218;6.548;2023-07-31T14:55:18;7.55;;;3.30;;
51901;SDS011;37929;53.218;6.548;2023-07-31T14:57:44;7.13;;;3.10;;
51901;SDS011;37929;53.218;6.548;2023-07-31T15:00:10;6.63;;;3.00;;
51901;SDS011;37929;53.218;6.548;2023-07-31T15:02:39;10.85;;;4.63;;